Terminal Aerodrome Forecast
Issued by NWS

Home | Current Version | Previous Version | Text Only | Print | Product List | Glossary On
Versions: 1 2 3 4 5 6 7 8 9 10 11 12 13 14 15
000
FTUS43 KEAX 311345 AAA
TAFSTJ
TAF AMD
KSTJ 311345Z 3114/0112 16003KT 5SM BR SKC
     FM311500 17007KT P6SM FEW025
     FM311800 18011KT P6SM SCT050
     FM010000 16008KT P6SM SKC=

USA.gov is the U.S. government's official web portal to all federal, state and local government web resources and services.